Terminal Aerodrome Forecast
Issued by NWS

Current Version | Previous Version | Text Only | Print | Product List | Glossary Off
Versions: 1 2 3 4 5 6 7 8 9 10 11 12 13 14 15 16 17 18 19 20 21 22 23 24 25 26 27 28 29 30

000
FTUS41 KRLX 270100 AAA
TAFCKB
TAF AMD
KCKB 270111Z 2701/2724 35005KT P6SM -RA OVC025
     FM270500 32006KT P6SM OVC025
     FM271600 31006KT P6SM BKN035
     FM271900 30006KT P6SM SCT045=

USA.gov is the U.S. government's official web portal to all federal, state and local government web resources and services.